Fortune Wing — VRHW2 — position and weather

sailwx.info

Track history (hours):
 
Tides and Currents Weather Stations Pressure Air Temp Water Temp Dewpoint Dewpoint Depression Visibility Wind Speed Wind Dir Waves Ship Positions

Fortune Wing

Last reported at 2018-May-13 02:26 UTC. Time now 2018-May-23 09:12 UTC.
Position N 01°28' E 104°48'.
Warning: this ship's position is 10 days out of date.

Length 190 m; draft 6.3 m.

Type: Cargo ship. MMSI: 477389500.

Date/timePositionNaut miles runAvg speedWind from/ knotsBaromVisibWave heightAir tempDewpointWater temp
2018-May-13 02:26N 01°28' E 104°48'814.5
2018-May-13 01:53N 01°28' E 104°40'614.5
2018-May-13 01:30N 01°28' E 104°35'714.1
2018-May-13 00:59N 01°24' E 104°29'714.2
2018-May-13 00:30N 01°20' E 104°23'713.4
2018-May-12 23:59N 01°17' E 104°17'714.3
2018-May-12 23:30N 01°16' E 104°10'714.1
2018-May-12 23:00N 01°15' E 104°03'612.5
2018-May-12 22:29N 01°14' E 103°57'3 6.2
2018-May-12 22:00N 01°16' E 103°55'2 3.0
2018-May-12 21:27N 01°16' E 103°54'0 0.1
2018-May-12 20:54N 01°16' E 103°54'0 0.0
2018-May-12 20:30N 01°16' E 103°54'0 0.1
2018-May-12 19:59N 01°16' E 103°54'0 0.1
2018-May-12 19:26N 01°17' E 103°54'0 0.1
2018-May-12 18:59N 01°16' E 103°54'0 0.0
2018-May-12 18:27N 01°16' E 103°54'0 0.1
2018-May-12 17:59N 01°17' E 103°54'0 0.0
2018-May-12 17:26N 01°17' E 103°54'0 0.0
2018-May-12 16:57N 01°17' E 103°54'0 0.0
2018-May-12 16:30N 01°17' E 103°54'0 0.0
2018-May-12 15:59N 01°17' E 103°54'0 0.1
2018-May-12 15:30N 01°16' E 103°54'0 0.1
2018-May-12 14:59N 01°17' E 103°54'0 0.1
2018-May-12 14:26N 01°16' E 103°54'0 0.0
2018-May-12 13:44N 01°16' E 103°54'0 0.0
2018-May-12 13:30N 01°16' E 103°54'0 0.1
2018-May-12 12:54N 01°16' E 103°54'0 0.1
2018-May-12 12:24N 01°16' E 103°54'0 0.0
2018-May-12 11:59N 01°16' E 103°54'0 0.1
2018-May-12 11:30N 01°16' E 103°54'0 0.0
2018-May-12 10:54N 01°16' E 103°54'0 0.1
2018-May-12 10:30N 01°16' E 103°54'0 0.1
2018-May-12 09:57N 01°16' E 103°54'0 0.1
2018-May-12 09:30N 01°16' E 103°54'0 0.0
2018-May-12 08:48N 01°16' E 103°54'0 0.4
2018-May-12 08:29N 01°17' E 103°54'3 6.0
2018-May-12 08:00N 01°16' E 103°57'2 4.6
2018-May-12 07:30N 01°14' E 103°56'4 7.3
2018-May-12 06:59N 01°12' E 103°53'5 9.7
2018-May-12 06:30N 01°10' E 103°48'714.3
2018-May-12 06:00N 01°05' E 103°43'612.5
2018-May-12 05:30N 01°04' E 103°37'612.7
2018-May-12 05:00N 01°07' E 103°31'612.3
2018-May-12 04:30N 01°10' E 103°26'712.8
2018-May-12 03:59N 01°14' E 103°21'712.9
2018-May-12 03:29N 01°18' E 103°16'912.6
2018-May-12 02:48N 01°24' E 103°10'2112.7
2018-May-12 01:10N 01°35' E 102°53'512.5
2018-May-12 00:47N 01°38' E 102°48'  
Track history (hours):
 
Tides and Currents Weather Stations Pressure Air Temp Water Temp Dewpoint Dewpoint Depression Visibility Wind Speed Wind Dir Waves Ship Positions

Fortune Wing

Last reported at 2018-May-13 02:26 UTC. Time now 2018-May-23 09:12 UTC.
Position N 01°28' E 104°48'.
Warning: this ship's position is 10 days out of date.

Length 190 m; draft 6.3 m.

Type: Cargo ship. MMSI: 477389500.

Date/timePositionNaut miles runAvg speedWind from/ knotsBaromVisibWave heightAir tempDewpointWater temp
2018-May-13 02:26N 01°28' E 104°48'814.5
2018-May-13 01:53N 01°28' E 104°40'614.5
2018-May-13 01:30N 01°28' E 104°35'714.1
2018-May-13 00:59N 01°24' E 104°29'714.2
2018-May-13 00:30N 01°20' E 104°23'713.4
2018-May-12 23:59N 01°17' E 104°17'714.3
2018-May-12 23:30N 01°16' E 104°10'714.1
2018-May-12 23:00N 01°15' E 104°03'612.5
2018-May-12 22:29N 01°14' E 103°57'3 6.2
2018-May-12 22:00N 01°16' E 103°55'2 3.0
2018-May-12 21:27N 01°16' E 103°54'0 0.1
2018-May-12 20:54N 01°16' E 103°54'0 0.0
2018-May-12 20:30N 01°16' E 103°54'0 0.1
2018-May-12 19:59N 01°16' E 103°54'0 0.1
2018-May-12 19:26N 01°17' E 103°54'0 0.1
2018-May-12 18:59N 01°16' E 103°54'0 0.0
2018-May-12 18:27N 01°16' E 103°54'0 0.1
2018-May-12 17:59N 01°17' E 103°54'0 0.0
2018-May-12 17:26N 01°17' E 103°54'0 0.0
2018-May-12 16:57N 01°17' E 103°54'0 0.0
2018-May-12 16:30N 01°17' E 103°54'0 0.0
2018-May-12 15:59N 01°17' E 103°54'0 0.1
2018-May-12 15:30N 01°16' E 103°54'0 0.1
2018-May-12 14:59N 01°17' E 103°54'0 0.1
2018-May-12 14:26N 01°16' E 103°54'0 0.0
2018-May-12 13:44N 01°16' E 103°54'0 0.0
2018-May-12 13:30N 01°16' E 103°54'0 0.1
2018-May-12 12:54N 01°16' E 103°54'0 0.1
2018-May-12 12:24N 01°16' E 103°54'0 0.0
2018-May-12 11:59N 01°16' E 103°54'0 0.1
2018-May-12 11:30N 01°16' E 103°54'0 0.0
2018-May-12 10:54N 01°16' E 103°54'0 0.1
2018-May-12 10:30N 01°16' E 103°54'0 0.1
2018-May-12 09:57N 01°16' E 103°54'0 0.1
2018-May-12 09:30N 01°16' E 103°54'0 0.0
2018-May-12 08:48N 01°16' E 103°54'0 0.4
2018-May-12 08:29N 01°17' E 103°54'3 6.0
2018-May-12 08:00N 01°16' E 103°57'2 4.6
2018-May-12 07:30N 01°14' E 103°56'4 7.3
2018-May-12 06:59N 01°12' E 103°53'5 9.7
2018-May-12 06:30N 01°10' E 103°48'714.3
2018-May-12 06:00N 01°05' E 103°43'612.5
2018-May-12 05:30N 01°04' E 103°37'612.7
2018-May-12 05:00N 01°07' E 103°31'612.3
2018-May-12 04:30N 01°10' E 103°26'712.8
2018-May-12 03:59N 01°14' E 103°21'712.9
2018-May-12 03:29N 01°18' E 103°16'912.6
2018-May-12 02:48N 01°24' E 103°10'2112.7
2018-May-12 01:10N 01°35' E 102°53'512.5
2018-May-12 00:47N 01°38' E 102°48'  

Dump ship's entire track history